Time;durP1;ratioP1;P1;durP2;ratioP2;P2;SDS_P1;SDS_P2;PMS_P1;PMS_P2;Temp;Humidity;BMP_temperature;BMP_pressure;BME280_temperature;BME280_humidity;BME280_pressure;Samples;Min_cycle;Max_cycle;Signal;HPM_P1;HPM_P2
2022/08/02 00:01:45;;;;;;;6.07;4.05;;;;;;;20.88;49.96;99062.09;5075942;28;20019;-90
2022/08/02 00:04:11;;;;;;;7.13;3.95;;;;;;;20.91;49.94;99075.47;5076343;28;20059;-90
2022/08/02 00:06:37;;;;;;;8.02;3.90;;;;;;;20.82;50.11;99064.56;5074278;28;20028;-90
2022/08/02 00:09:03;;;;;;;5.10;3.65;;;;;;;20.93;49.64;99063.69;5076856;28;20031;-89
2022/08/02 00:11:29;;;;;;;5.97;3.80;;;;;;;21.04;49.54;99059.53;5094210;28;20028;-89
2022/08/02 00:13:55;;;;;;;6.13;5.10;;;;;;;20.97;49.56;99058.78;5076745;28;20020;-90
2022/08/02 00:16:20;;;;;;;8.05;4.30;;;;;;;20.87;49.97;99064.09;5076001;28;20027;-90
2022/08/02 00:18:46;;;;;;;5.10;3.83;;;;;;;20.90;49.98;99066.16;5076368;28;20044;-89
2022/08/02 00:21:11;;;;;;;4.13;3.72;;;;;;;20.76;50.20;99049.16;5076477;28;20124;-89
2022/08/02 00:23:37;;;;;;;5.28;3.95;;;;;;;20.96;49.81;99058.00;5075551;28;20115;-89
2022/08/02 00:26:02;;;;;;;5.70;4.05;;;;;;;21.02;49.46;99066.88;5076551;28;20023;-90
2022/08/02 00:28:28;;;;;;;4.53;4.10;;;;;;;20.96;49.00;99045.78;5075809;28;20028;-89
2022/08/02 00:30:56;;;;;;;6.72;3.60;;;;;;;21.14;49.02;99076.94;5075251;28;20117;-90
2022/08/02 00:33:21;;;;;;;4.25;3.85;;;;;;;20.82;49.37;99047.50;5076236;28;20030;-89
2022/08/02 00:35:47;;;;;;;4.13;3.40;;;;;;;20.62;49.75;99033.00;5076252;28;20024;-89
2022/08/02 00:38:13;;;;;;;6.35;3.92;;;;;;;20.77;49.97;99073.50;5075946;28;20109;-89
2022/08/02 00:40:39;;;;;;;5.78;3.90;;;;;;;20.47;50.62;99063.50;5073769;28;20032;-89
2022/08/02 00:43:08;;;;;;;5.78;3.60;;;;;;;20.53;50.60;99070.38;5074033;28;20430;-88
2022/08/02 00:45:37;;;;;;;3.80;3.30;;;;;;;20.50;50.53;99065.50;5076501;28;20088;-89
2022/08/02 00:48:04;;;;;;;10.93;3.75;;;;;;;20.57;50.05;99045.59;5092887;28;20020;-89
2022/08/02 00:50:31;;;;;;;15.30;3.95;;;;;;;20.61;50.06;99031.38;5072343;28;20020;-89
2022/08/02 00:52:57;;;;;;;8.68;4.22;;;;;;;20.77;49.84;99062.94;5058768;28;20107;-88
2022/08/02 00:55:22;;;;;;;5.72;3.00;;;;;;;20.72;49.90;99039.81;5075755;28;20475;-89
2022/08/02 00:57:48;;;;;;;6.43;3.65;;;;;;;20.71;49.94;99060.94;5093393;28;20111;-89
2022/08/02 01:00:14;;;;;;;11.80;4.20;;;;;;;20.65;50.27;99059.78;5093634;28;20105;-89
2022/08/02 01:02:40;;;;;;;4.55;3.25;;;;;;;20.69;50.24;99057.72;5075246;28;20019;-89
2022/08/02 01:05:06;;;;;;;7.63;3.22;;;;;;;20.62;50.52;99050.81;5088385;28;20479;-89
2022/08/02 01:07:32;;;;;;;4.03;3.50;;;;;;;20.79;50.00;99044.66;5073255;28;20024;-89
2022/08/02 01:09:57;;;;;;;4.80;3.17;;;;;;;20.75;49.93;99042.66;5091419;28;20028;-90
2022/08/02 01:12:23;;;;;;;3.88;3.58;;;;;;;20.86;49.72;99042.59;5075390;28;20379;-89
2022/08/02 01:14:50;;;;;;;4.22;3.78;;;;;;;20.89;49.77;99055.19;5075013;28;20024;-89
2022/08/02 01:17:59;;;;;;;5.82;3.70;;;;;;;20.78;50.13;99049.53;5075023;28;20048;-89
2022/08/02 01:20:52;;;;;;;3.75;2.90;;;;;;;20.79;49.69;99050.34;5052459;28;20114;-89
2022/08/02 01:23:30;;;;;;;5.63;3.25;;;;;;;20.85;49.80;99054.41;5064561;28;20051;-89
2022/08/02 01:26:22;;;;;;;4.45;3.65;;;;;;;20.94;49.64;99053.94;5075074;28;20040;-89
2022/08/02 01:29:21;;;;;;;4.00;3.65;;;;;;;20.78;49.74;99052.38;5075123;28;20410;-90
2022/08/02 01:31:58;;;;;;;8.57;3.38;;;;;;;20.52;50.30;99054.56;5047746;28;20046;-89
2022/08/02 01:34:33;;;;;;;3.85;3.55;;;;;;;20.41;50.55;99043.22;5074844;28;20027;-89
2022/08/02 01:37:12;;;;;;;5.40;3.40;;;;;;;20.37;50.53;99038.78;5075061;28;20575;-89
2022/08/02 01:39:41;;;;;;;4.28;3.88;;;;;;;20.40;50.74;99044.44;5074476;28;20054;-89
2022/08/02 01:42:07;;;;;;;5.00;3.40;;;;;;;20.32;51.07;99043.69;5092714;28;20032;-90
2022/08/02 01:44:36;;;;;;;5.22;3.60;;;;;;;20.37;51.06;99035.94;5092850;28;20073;-89
2022/08/02 01:47:06;;;;;;;3.97;3.57;;;;;;;20.47;51.04;99043.59;5074598;28;20108;-89
2022/08/02 01:49:33;;;;;;;4.97;3.45;;;;;;;20.44;50.88;99033.09;5074934;28;20434;-89
2022/08/02 01:54:51;;;;;;;6.40;3.85;;;;;;;20.52;50.73;99040.34;5092321;28;20084;-89
2022/08/02 01:57:20;;;;;;;4.55;3.72;;;;;;;20.54;50.60;99037.91;5074728;28;20119;-89
2022/08/02 01:59:49;;;;;;;10.57;5.05;;;;;;;20.62;50.03;99033.78;5074553;28;20030;-89
2022/08/02 02:02:15;;;;;;;19.58;4.03;;;;;;;20.64;49.54;99035.44;5073811;28;20066;-89
2022/08/02 02:04:43;;;;;;;8.82;3.08;;;;;;;20.62;49.56;99033.78;5074617;28;20012;-88
2022/08/02 02:07:11;;;;;;;3.70;3.30;;;;;;;20.60;49.28;99027.72;5071383;28;20094;-89
2022/08/02 02:09:39;;;;;;;3.55;3.25;;;;;;;20.74;48.88;99045.91;5073276;28;20027;-89
2022/08/02 02:12:06;;;;;;;4.78;3.00;;;;;;;20.55;48.76;99011.13;5075087;28;20027;-86
2022/08/02 02:14:33;;;;;;;3.92;2.78;;;;;;;20.72;48.05;99029.28;5073466;28;20427;-86
2022/08/02 02:17:01;;;;;;;3.80;3.40;;;;;;;20.84;47.89;99022.31;5072740;28;20024;-86
2022/08/02 02:19:28;;;;;;;3.10;2.80;;;;;;;20.69;47.80;99007.34;5073704;28;20020;-85
2022/08/02 02:21:54;;;;;;;8.73;3.50;;;;;;;20.77;47.95;99022.34;5073603;28;20020;-85
2022/08/02 02:24:20;;;;;;;9.90;3.10;;;;;;;20.74;47.93;99020.31;5091664;28;20478;-86
2022/08/02 02:26:47;;;;;;;4.95;3.08;;;;;;;20.76;47.92;99026.41;5091376;28;20039;-85
2022/08/02 02:29:19;;;;;;;8.20;3.28;;;;;;;20.78;48.10;99023.97;5073513;28;20016;-86
2022/08/02 02:31:46;;;;;;;4.32;2.95;;;;;;;20.66;48.15;99033.75;5072892;28;20016;-86
2022/08/02 02:34:23;;;;;;;6.03;2.67;;;;;;;20.60;47.93;99013.50;5073242;28;20031;-86
2022/08/02 02:36:50;;;;;;;3.22;2.95;;;;;;;20.44;48.06;99028.19;5073154;28;20089;-86
2022/08/02 02:39:21;;;;;;;8.70;3.15;;;;;;;20.44;48.23;99033.09;5072713;28;20039;-86
2022/08/02 02:41:48;;;;;;;4.90;3.08;;;;;;;20.29;48.77;99032.34;5071607;28;20495;-85
2022/08/02 02:44:18;;;;;;;5.18;3.30;;;;;;;20.16;48.96;99017.81;5072913;28;20020;-86
2022/08/02 02:46:46;;;;;;;10.20;3.58;;;;;;;20.08;49.69;99019.84;5072126;28;20028;-86
2022/08/02 02:49:15;;;;;;;22.80;4.85;;;;;;;20.12;49.47;99022.66;5071123;28;20058;-86
2022/08/02 02:51:41;;;;;;;9.25;4.03;;;;;;;20.37;48.86;99033.94;5071175;28;20082;-86
2022/08/02 02:54:10;;;;;;;11.80;3.55;;;;;;;20.21;48.67;99017.34;5071009;28;20028;-87
2022/08/02 02:56:37;;;;;;;31.02;4.30;;;;;;;20.16;48.86;99018.59;5069035;28;20406;-86
2022/08/02 02:59:04;;;;;;;4.07;2.58;;;;;;;20.14;48.75;99012.53;5081415;28;20113;-86
2022/08/02 03:01:30;;;;;;;5.88;3.10;;;;;;;20.02;49.42;99019.44;5069603;28;20024;-87
2022/08/02 03:03:59;;;;;;;13.82;3.78;;;;;;;20.17;49.57;99047.81;5083811;28;20026;-86
2022/08/02 03:06:25;;;;;;;24.73;4.07;;;;;;;20.08;49.34;99033.22;5093236;28;20343;-85
2022/08/02 03:08:51;;;;;;;10.82;3.53;;;;;;;19.98;49.40;99001.63;5076966;28;20020;-86
2022/08/02 03:11:17;;;;;;;6.22;3.25;;;;;;;20.14;49.61;99029.56;5094938;28;20036;-86
2022/08/02 03:13:43;;;;;;;3.90;2.92;;;;;;;20.05;49.51;99012.16;5094999;28;20035;-84
2022/08/02 03:16:10;;;;;;;7.70;3.50;;;;;;;20.29;49.41;99026.66;5075693;28;20024;-86
2022/08/02 03:18:38;;;;;;;7.50;3.05;;;;;;;20.47;48.47;99035.09;5076404;28;20471;-86
2022/08/02 03:21:11;;;;;;;5.45;2.75;;;;;;;20.70;47.99;99028.88;5076416;28;20020;-86
2022/08/02 03:23:38;;;;;;;13.55;3.38;;;;;;;20.88;47.69;99017.44;5076431;28;20061;-86
2022/08/02 03:26:04;;;;;;;3.20;2.70;;;;;;;21.10;47.34;99037.16;5094460;28;20020;-86
2022/08/02 03:28:30;;;;;;;17.52;3.03;;;;;;;21.14;47.13;99037.13;5073777;28;20161;-85
2022/08/02 03:30:56;;;;;;;7.95;2.92;;;;;;;21.07;47.38;99040.84;5074201;28;20447;-85
2022/08/02 03:33:24;;;;;;;10.57;4.15;;;;;;;21.06;47.68;99046.94;5074876;28;20055;-85
2022/08/02 03:35:52;;;;;;;8.50;3.47;;;;;;;21.06;47.88;99050.59;5074168;28;20122;-86
2022/08/02 03:38:20;;;;;;;9.43;3.13;;;;;;;21.18;47.58;99049.31;5074601;28;20070;-86
2022/08/02 03:40:47;;;;;;;38.95;6.15;;;;;;;21.13;47.17;99022.13;5074551;28;20064;-85
2022/08/02 03:43:14;;;;;;;17.35;3.85;;;;;;;21.04;47.25;99036.78;5075126;28;20045;-86
2022/08/02 03:45:44;;;;;;;12.60;3.50;;;;;;;20.66;48.44;99064.22;5070635;28;20023;-86
2022/08/02 03:48:11;;;;;;;9.95;2.60;;;;;;;20.23;49.81;99073.75;5076193;28;20050;-85
2022/08/02 03:50:38;;;;;;;14.70;3.97;;;;;;;20.10;50.41;99070.53;5075590;28;20036;-85
2022/08/02 03:53:05;;;;;;;5.90;3.47;;;;;;;20.27;50.25;99074.53;5075446;28;20020;-85
2022/08/02 03:55:31;;;;;;;8.95;3.63;;;;;;;20.34;50.34;99057.47;5093454;28;20570;-85
2022/08/02 03:57:57;;;;;;;18.42;4.72;;;;;;;20.41;50.55;99085.03;5075753;28;20119;-85
2022/08/02 04:00:23;;;;;;;10.18;4.05;;;;;;;20.59;50.18;99088.59;5075340;28;20056;-86
2022/08/02 04:02:49;;;;;;;12.73;3.30;;;;;;;20.53;49.50;99055.34;5075688;28;20027;-85
2022/08/02 04:05:16;;;;;;;3.90;3.35;;;;;;;20.41;49.34;99093.56;5075361;28;20130;-86
2022/08/02 04:07:42;;;;;;;8.23;3.38;;;;;;;20.56;49.65;99077.25;5075173;28;20036;-86
2022/08/02 04:10:09;;;;;;;7.05;3.95;;;;;;;20.73;49.13;99053.63;5075597;28;20024;-86
2022/08/02 04:12:34;;;;;;;8.85;3.80;;;;;;;21.01;49.03;99077.44;5075800;28;20488;-85
2022/08/02 04:15:02;;;;;;;15.93;3.58;;;;;;;20.56;49.13;99085.75;5074910;28;20032;-86
2022/08/02 04:17:31;;;;;;;10.85;3.58;;;;;;;20.46;49.32;99084.59;5075411;28;20131;-85
2022/08/02 04:20:05;;;;;;;8.75;4.00;;;;;;;20.62;48.71;99086.97;5074813;28;20117;-86
2022/08/02 04:22:42;;;;;;;17.30;5.38;;;;;;;20.88;48.65;99077.13;5072382;28;20087;-85
2022/08/02 04:25:10;;;;;;;9.07;3.75;;;;;;;21.27;47.09;99077.25;5070914;28;20044;-85
2022/08/02 04:27:37;;;;;;;10.57;4.38;;;;;;;21.43;46.70;99085.28;5093514;28;20035;-86
2022/08/02 04:30:04;;;;;;;9.25;4.40;;;;;;;21.35;46.85;99073.13;5074516;28;20241;-86
2022/08/02 04:32:31;;;;;;;4.40;3.55;;;;;;;21.64;46.39;99092.81;5075359;28;20076;-85
2022/08/02 04:34:57;;;;;;;12.15;3.33;;;;;;;21.70;45.96;99099.69;5075127;28;20016;-86
2022/08/02 04:37:25;;;;;;;5.95;3.63;;;;;;;21.84;46.13;99087.34;5073853;28;20093;-86
2022/08/02 04:39:50;;;;;;;6.25;3.67;;;;;;;21.78;46.32;99082.53;5075312;28;20101;-86
2022/08/02 04:42:24;;;;;;;9.05;3.70;;;;;;;21.71;45.80;99092.75;5075060;28;20027;-86
2022/08/02 04:44:51;;;;;;;8.52;3.42;;;;;;;21.78;46.52;99099.63;5074868;28;20031;-86
2022/08/02 04:47:17;;;;;;;15.27;4.20;;;;;;;21.73;46.68;99064.72;5074301;28;20208;-86
2022/08/02 04:49:42;;;;;;;6.00;3.67;;;;;;;21.96;46.23;99088.88;5093018;28;20023;-85
2022/08/02 04:52:08;;;;;;;3.40;3.08;;;;;;;21.95;46.33;99064.47;5093254;28;20028;-85
2022/08/02 04:54:33;;;;;;;7.28;3.33;;;;;;;22.15;45.49;99078.91;5093014;28;20020;-85
2022/08/02 04:56:59;;;;;;;6.75;3.33;;;;;;;22.36;45.43;99093.31;5074828;28;20047;-86
2022/08/02 04:59:25;;;;;;;8.98;3.80;;;;;;;22.01;45.80;99099.81;5075111;28;20126;-86
2022/08/02 05:01:51;;;;;;;7.20;3.92;;;;;;;22.16;45.94;99102.50;5091352;28;20059;-86
2022/08/02 05:04:16;;;;;;;32.00;4.32;;;;;;;22.28;45.78;99084.84;5073978;28;20052;-86
2022/08/02 05:06:42;;;;;;;4.90;3.50;;;;;;;22.44;45.66;99080.59;5071839;28;20051;-86
2022/08/02 05:09:07;;;;;;;6.75;3.10;;;;;;;22.21;46.36;99090.66;5071742;28;20483;-85
2022/08/02 05:11:33;;;;;;;11.20;4.18;;;;;;;22.34;45.82;99090.09;5054763;28;20058;-85
2022/08/02 05:13:58;;;;;;;9.45;4.50;;;;;;;22.32;46.26;99092.53;5054714;28;20402;-86
2022/08/02 05:16:27;;;;;;;14.23;6.75;;;;;;;22.37;45.73;99089.25;5068453;28;20502;-86
2022/08/02 05:18:52;;;;;;;25.02;14.23;;;;;;;22.47;46.01;99082.59;5092770;28;20032;-86
2022/08/02 05:21:19;;;;;;;24.58;10.10;;;;;;;22.76;45.71;99095.72;5074544;28;20023;-86
2022/08/02 05:23:44;;;;;;;7.60;3.45;;;;;;;22.88;44.33;99085.75;5074405;28;20550;-86
2022/08/02 05:26:10;;;;;;;7.72;3.38;;;;;;;23.12;44.24;99093.13;5074455;28;20077;-86
2022/08/02 05:28:35;;;;;;;13.38;3.83;;;;;;;23.23;43.30;99084.44;5074065;28;20036;-86
2022/08/02 05:31:01;;;;;;;11.07;2.97;;;;;;;23.35;42.57;99093.63;5073562;28;20030;-86
2022/08/02 05:33:26;;;;;;;8.82;2.90;;;;;;;23.57;42.30;99099.81;5092468;28;20532;-86
2022/08/02 05:35:52;;;;;;;13.05;3.97;;;;;;;23.68;42.20;99088.19;5073785;28;20020;-86
2022/08/02 05:38:17;;;;;;;6.15;2.83;;;;;;;23.72;40.41;99083.25;5073905;28;20567;-86
2022/08/02 05:40:43;;;;;;;6.30;2.60;;;;;;;24.02;40.91;99097.81;5074033;28;20040;-86
2022/08/02 05:43:12;;;;;;;8.30;3.00;;;;;;;24.16;40.37;99105.31;5074118;28;20028;-86
2022/08/02 05:45:38;;;;;;;8.05;4.00;;;;;;;24.08;38.75;99099.75;5067293;28;20088;-87
2022/08/02 05:48:04;;;;;;;18.63;5.88;;;;;;;24.08;38.44;99096.91;5073429;28;20040;-84
2022/08/02 05:50:31;;;;;;;7.32;3.10;;;;;;;24.23;38.06;99111.69;5073232;28;20043;-86
2022/08/02 05:53:05;;;;;;;5.80;3.38;;;;;;;24.10;37.77;99096.44;5074098;28;20560;-85
2022/08/02 05:55:42;;;;;;;4.18;2.85;;;;;;;24.07;37.39;99097.34;5078613;28;20023;-85
2022/08/02 05:58:24;;;;;;;12.63;2.40;;;;;;;24.17;37.44;99104.91;5065489;28;20023;-86
2022/08/02 06:00:53;;;;;;;5.53;4.13;;;;;;;24.14;37.33;99090.69;5087339;28;20035;-86
2022/08/02 06:03:38;;;;;;;4.85;3.28;;;;;;;24.34;37.32;99090.69;5066904;28;20036;-86
2022/08/02 06:06:19;;;;;;;9.35;3.70;;;;;;;24.40;37.49;99088.94;5067620;28;20028;-86
2022/08/02 06:08:49;;;;;;;13.88;6.20;;;;;;;24.44;36.83;99103.16;5071677;28;20537;-86
2022/08/02 06:11:20;;;;;;;5.50;3.30;;;;;;;24.50;36.62;99089.97;5056456;28;20101;-85
2022/08/02 06:13:46;;;;;;;10.70;2.88;;;;;;;24.74;36.38;99113.56;5055071;28;20024;-86
2022/08/02 06:16:12;;;;;;;4.25;2.88;;;;;;;24.61;36.39;99107.69;5068962;28;20047;-85
2022/08/02 06:18:40;;;;;;;2.72;2.45;;;;;;;24.76;35.89;99118.81;5075952;28;20443;-85
2022/08/02 06:21:07;;;;;;;4.18;2.63;;;;;;;24.74;35.89;99116.41;5075406;28;20047;-86
2022/08/02 06:23:35;;;;;;;4.75;4.28;;;;;;;24.89;36.00;99107.56;5073864;28;20563;-86
2022/08/02 06:26:03;;;;;;;3.20;2.60;;;;;;;24.99;35.96;99114.28;5068217;28;20040;-85
2022/08/02 06:28:29;;;;;;;11.07;3.53;;;;;;;24.98;35.38;99112.66;5070617;28;20085;-90
2022/08/02 06:30:56;;;;;;;6.13;3.00;;;;;;;24.94;35.87;99092.72;5074417;28;20126;-87
2022/08/02 06:33:22;;;;;;;4.53;2.63;;;;;;;25.37;34.75;99113.78;5073424;28;20020;-86
2022/08/02 06:36:08;;;;;;;4.47;2.40;;;;;;;25.23;34.66;99115.75;5088546;28;20028;-89
2022/08/02 06:38:54;;;;;;;7.95;2.50;;;;;;;25.18;35.45;99115.47;5071940;28;20123;-88
2022/08/02 06:41:23;;;;;;;8.38;2.78;;;;;;;25.27;35.29;99089.91;5060200;28;20024;-87
2022/08/02 06:43:58;;;;;;;4.75;2.60;;;;;;;25.58;34.89;99123.16;5061095;28;20181;-88
2022/08/02 06:46:23;;;;;;;4.28;2.60;;;;;;;25.63;34.66;99096.81;5091608;28;20036;-88
2022/08/02 06:48:49;;;;;;;6.50;2.70;;;;;;;25.72;35.25;99107.66;5072268;28;20020;-88
2022/08/02 06:51:14;;;;;;;3.35;2.75;;;;;;;25.92;34.17;99113.28;5072933;28;20388;-88
2022/08/02 06:53:41;;;;;;;8.63;2.40;;;;;;;26.17;34.19;99108.94;5074469;28;20016;-92
2022/08/02 06:56:06;;;;;;;4.93;1.98;;;;;;;25.54;34.53;99094.59;5073155;28;20027;-91
2022/08/02 06:58:32;;;;;;;2.95;2.55;;;;;;;25.85;34.95;99085.63;5065068;28;20020;-91
2022/08/02 07:00:57;;;;;;;5.38;2.20;;;;;;;26.06;34.14;99107.16;5074595;28;20083;-91
2022/08/02 07:03:24;;;;;;;10.73;2.45;;;;;;;26.08;33.80;99110.38;5073928;28;20408;-92
2022/08/02 07:05:50;;;;;;;5.70;2.72;;;;;;;26.20;33.85;99102.31;5075820;28;20058;-93
2022/08/02 07:08:17;;;;;;;5.28;2.55;;;;;;;26.14;33.17;99066.88;5075887;28;20490;-90
2022/08/02 07:10:43;;;;;;;4.88;2.30;;;;;;;26.54;33.22;99111.63;5072753;28;20032;-92
2022/08/02 07:13:09;;;;;;;8.15;2.08;;;;;;;26.35;33.19;99071.22;5075718;28;20039;-92
2022/08/02 07:15:36;;;;;;;5.47;2.45;;;;;;;26.57;32.83;99108.66;5072234;28;20025;-93
2022/08/02 07:18:02;;;;;;;2.22;2.03;;;;;;;26.63;33.24;99109.72;5092090;28;20063;-90
2022/08/02 07:20:28;;;;;;;3.03;2.22;;;;;;;26.68;32.49;99108.34;5073637;28;20020;-91
2022/08/02 07:22:54;;;;;;;2.58;2.20;;;;;;;26.74;32.71;99100.78;5072692;28;20047;-93
2022/08/02 07:25:19;;;;;;;3.42;2.05;;;;;;;26.75;32.48;99113.06;5072764;28;20114;-92
2022/08/02 07:27:45;;;;;;;2.13;1.67;;;;;;;26.63;32.83;99109.72;5073761;28;20032;-91
2022/08/02 07:30:11;;;;;;;4.97;1.65;;;;;;;26.85;32.78;99102.50;5073706;28;20033;-92
2022/08/02 07:32:37;;;;;;;3.63;1.90;;;;;;;26.61;32.69;99103.63;5064078;28;20036;-92
2022/08/02 07:35:04;;;;;;;5.22;2.00;;;;;;;26.91;32.69;99097.88;5072195;28;20353;-93
2022/08/02 07:37:32;;;;;;;3.83;1.90;;;;;;;27.07;32.28;99096.94;5074250;28;20648;-92
2022/08/02 07:39:57;;;;;;;6.60;2.55;;;;;;;26.97;32.10;99092.34;5061892;28;20099;-90
2022/08/02 07:42:24;;;;;;;2.78;2.20;;;;;;;27.31;32.25;99093.72;5078807;28;20020;-93
2022/08/02 07:44:50;;;;;;;6.35;1.88;;;;;;;27.39;32.00;99109.47;5068866;28;20020;-93
2022/08/02 07:47:16;;;;;;;9.15;1.60;;;;;;;27.31;32.04;99103.16;5092263;28;20111;-92
2022/08/02 07:49:41;;;;;;;3.13;1.98;;;;;;;27.32;31.69;99096.16;5074340;28;20479;-93
2022/08/02 07:52:07;;;;;;;5.90;2.03;;;;;;;27.39;31.79;99103.72;5075572;28;20028;-92
2022/08/02 07:54:32;;;;;;;2.05;1.67;;;;;;;27.50;31.54;99102.56;5077109;28;20020;-93
2022/08/02 07:56:59;;;;;;;5.20;2.50;;;;;;;27.51;31.03;99104.16;5077593;28;20027;-91
2022/08/02 07:59:26;;;;;;;6.80;2.05;;;;;;;27.79;31.17;99104.50;5077811;28;20016;-92
2022/08/02 08:01:52;;;;;;;2.88;1.50;;;;;;;28.09;30.35;99097.28;5078240;28;20077;-92
2022/08/02 08:04:18;;;;;;;1.77;1.35;;;;;;;28.15;30.85;99098.31;5095889;28;20024;-94
2022/08/02 08:06:43;;;;;;;2.33;1.75;;;;;;;28.42;29.95;99099.81;5078257;28;20024;-91
2022/08/02 08:09:10;;;;;;;4.35;2.00;;;;;;;28.63;29.52;99097.41;5076270;28;20056;-94
2022/08/02 08:11:35;;;;;;;7.57;1.73;;;;;;;28.72;29.87;99106.09;5077087;28;20067;-93
2022/08/02 08:14:01;;;;;;;3.00;1.25;;;;;;;28.81;29.38;99104.53;5080025;28;20012;-95
2022/08/02 08:16:28;;;;;;;4.65;1.73;;;;;;;28.69;29.36;99109.91;5096064;28;20032;-96
2022/08/02 08:18:54;;;;;;;6.00;1.10;;;;;;;28.64;29.53;99106.81;5077268;28;20063;-93
2022/08/02 08:21:20;;;;;;;7.97;1.63;;;;;;;28.48;29.47;99097.13;5073265;28;20057;-94
2022/08/02 08:23:46;;;;;;;2.75;1.02;;;;;;;28.52;29.08;99103.56;5067076;28;20029;-93
2022/08/02 08:26:11;;;;;;;2.55;1.27;;;;;;;28.96;29.07;99101.94;5079134;28;20028;-92
2022/08/02 08:28:37;;;;;;;3.33;1.10;;;;;;;28.51;29.40;99104.03;5076947;28;20051;-94
2022/08/02 08:31:02;;;;;;;2.67;1.38;;;;;;;28.55;29.56;99075.94;5076789;28;20032;-94
2022/08/02 08:33:28;;;;;;;5.68;1.20;;;;;;;28.88;28.65;99092.78;5076497;28;20116;-95
2022/08/02 08:35:54;;;;;;;3.65;1.38;;;;;;;29.33;29.07;99107.09;5075855;28;20020;-94
2022/08/02 08:38:20;;;;;;;8.10;1.67;;;;;;;29.52;28.38;99093.56;5073339;28;20055;-92
2022/08/02 08:40:49;;;;;;;1.25;0.90;;;;;;;29.89;28.00;99092.84;5076105;28;20028;-94
2022/08/02 08:43:15;;;;;;;3.30;1.23;;;;;;;30.16;28.03;99097.03;5076986;28;20467;-93
2022/08/02 08:45:44;;;;;;;1.50;1.08;;;;;;;30.23;27.96;99096.72;5075998;28;20020;-93
2022/08/02 08:48:12;;;;;;;4.95;1.17;;;;;;;29.91;27.88;99098.91;5068999;28;20498;-94
2022/08/02 08:50:52;;;;;;;1.60;1.13;;;;;;;30.11;27.69;99099.28;5089186;28;20071;-93
2022/08/02 08:53:20;;;;;;;2.90;1.30;;;;;;;29.88;27.14;99102.75;5068535;28;20032;-94
2022/08/02 08:55:47;;;;;;;2.42;1.33;;;;;;;29.56;28.03;99099.97;5063011;28;20058;-94
2022/08/02 08:58:13;;;;;;;4.90;1.88;;;;;;;29.50;27.90;99101.88;5075701;28;20115;-93
2022/08/02 09:00:40;;;;;;;6.00;1.23;;;;;;;29.95;28.10;99091.72;5062682;28;20055;-93
2022/08/02 09:03:07;;;;;;;1.67;1.35;;;;;;;29.94;27.58;99069.16;5068471;28;20051;-93
2022/08/02 09:05:40;;;;;;;2.55;1.00;;;;;;;29.67;28.48;99097.44;5070067;28;20487;-93
2022/08/02 09:08:06;;;;;;;2.63;1.13;;;;;;;29.94;28.38;99083.56;5069127;28;20039;-91
2022/08/02 09:10:39;;;;;;;5.32;1.20;;;;;;;30.31;28.05;99083.59;5089071;28;20031;-91
2022/08/02 09:13:22;;;;;;;3.85;1.17;;;;;;;30.86;27.36;99084.81;5093540;28;20024;-90
2022/08/02 09:15:58;;;;;;;3.92;1.67;;;;;;;30.90;26.91;99085.44;5092581;28;20032;-92
2022/08/02 09:18:36;;;;;;;4.30;1.00;;;;;;;31.10;27.22;99073.34;5090130;28;20017;-92
2022/08/02 09:21:09;;;;;;;4.75;0.98;;;;;;;31.24;26.99;99068.19;5073152;28;20024;-91
2022/08/02 09:23:42;;;;;;;11.20;1.15;;;;;;;31.24;26.50;99082.63;5074881;28;20036;-91
2022/08/02 09:26:15;;;;;;;6.75;1.13;;;;;;;30.84;26.37;99067.19;5065520;28;20025;-93
2022/08/02 09:28:46;;;;;;;105.57;9.93;;;;;;;30.57;26.39;99042.03;5045848;28;20044;-93
2022/08/02 09:31:16;;;;;;;45.13;5.07;;;;;;;31.00;26.26;99065.19;5073872;28;20131;-94
2022/08/02 09:33:44;;;;;;;0.95;0.80;;;;;;;30.47;26.86;99038.38;5070405;28;20039;-94
2022/08/02 09:36:15;;;;;;;3.35;1.20;;;;;;;29.95;27.30;99044.81;5077547;28;20074;-93
2022/08/02 09:39:09;;;;;;;2.30;0.70;;;;;;;30.21;26.92;99071.25;5077343;28;20067;-94
2022/08/02 09:41:43;;;;;;;1.40;0.90;;;;;;;30.54;27.30;99035.97;5069906;28;20037;-95
2022/08/02 09:44:16;;;;;;;2.58;0.80;;;;;;;30.97;26.29;99035.22;5055305;28;20400;-92
2022/08/02 09:47:05;;;;;;;1.08;0.77;;;;;;;31.13;26.11;99042.66;5064815;28;20538;-86
2022/08/02 09:49:44;;;;;;;1.20;0.77;;;;;;;31.64;25.86;99045.97;5051109;28;20494;-92
2022/08/02 09:52:14;;;;;;;3.10;0.52;;;;;;;31.68;24.96;99063.91;5070595;28;20467;-93
2022/08/02 09:54:43;;;;;;;5.75;0.80;;;;;;;31.83;25.14;99060.31;5055897;28;20388;-95
2022/08/02 09:57:11;;;;;;;2.58;0.68;;;;;;;31.74;25.57;99041.72;5069927;28;20036;-92
2022/08/02 09:59:37;;;;;;;1.45;1.00;;;;;;;31.89;24.71;99064.91;5075080;28;20036;-92
2022/08/02 10:02:09;;;;;;;4.28;0.88;;;;;;;31.76;25.34;99070.94;5075584;28;20105;-93
2022/08/02 10:04:44;;;;;;;8.70;0.73;;;;;;;32.03;25.39;99039.44;5075120;28;20253;-92
2022/08/02 10:07:11;;;;;;;1.98;0.63;;;;;;;30.87;25.96;99056.75;5068507;28;20035;-91
2022/08/02 10:09:37;;;;;;;1.95;0.75;;;;;;;31.33;26.07;99056.59;5075156;28;20092;-91
2022/08/02 10:12:05;;;;;;;4.05;0.60;;;;;;;31.73;25.51;99057.44;5074741;28;20024;-92
2022/08/02 10:14:40;;;;;;;4.35;0.70;;;;;;;32.10;25.36;99044.84;5074293;28;20112;-92
2022/08/02 10:17:06;;;;;;;23.42;1.05;;;;;;;32.13;25.12;99038.06;5069883;28;20102;-90
2022/08/02 10:19:33;;;;;;;1.38;0.77;;;;;;;32.21;24.59;99041.34;5074341;28;20032;-91
2022/08/02 10:22:09;;;;;;;3.38;0.80;;;;;;;32.02;25.28;99032.84;5074645;28;20108;-93
2022/08/02 10:24:38;;;;;;;3.92;0.80;;;;;;;32.48;24.74;99072.16;5074515;28;20510;-92
2022/08/02 10:27:15;;;;;;;2.97;0.70;;;;;;;32.33;24.43;99025.03;5073206;28;20075;-93
2022/08/02 10:29:54;;;;;;;;;;;;;;;;;;;;;
2022/08/02 10:32:35;;;;;;;4.95;0.75;;;;;;;32.66;24.01;99072.47;5089771;28;20032;-92
2022/08/02 10:35:06;;;;;;;1.67;0.75;;;;;;;32.62;24.14;99043.72;5071305;28;20445;-93
2022/08/02 10:37:41;;;;;;;0.98;0.82;;;;;;;32.35;24.78;99029.06;5072267;28;20048;-92
2022/08/02 10:40:21;;;;;;;1.10;0.80;;;;;;;32.12;24.21;99041.47;5056844;28;20039;-92
2022/08/02 10:42:59;;;;;;;1.88;0.70;;;;;;;32.22;24.46;99029.31;5071648;28;20074;-93
2022/08/02 10:45:33;;;;;;;3.08;0.70;;;;;;;32.31;24.52;99047.88;5071150;28;20020;-92
2022/08/02 10:48:16;;;;;;;1.13;0.60;;;;;;;32.37;24.02;99036.44;5076172;28;20035;-95
2022/08/02 10:50:44;;;;;;;0.90;0.80;;;;;;;32.05;24.53;99045.53;5073448;28;20093;-93
2022/08/02 10:53:22;;;;;;;0.52;0.50;;;;;;;32.03;25.11;99054.69;5085166;28;20026;-93
2022/08/02 10:55:48;;;;;;;1.35;0.80;;;;;;;31.97;24.17;99044.31;5076496;28;20020;-94
2022/08/02 10:58:34;;;;;;;3.90;0.80;;;;;;;32.45;24.06;99052.91;5073596;28;20110;-93
2022/08/02 11:01:35;;;;;;;0.88;0.80;;;;;;;31.82;24.88;99009.56;5073909;28;20055;-94
2022/08/02 11:04:09;;;;;;;2.38;0.73;;;;;;;32.32;24.09;99023.44;5071547;28;20028;-93
2022/08/02 11:07:06;;;;;;;2.45;0.98;;;;;;;32.38;24.40;99003.31;5070184;28;20024;-93
2022/08/02 11:10:04;;;;;;;1.10;0.90;;;;;;;32.47;24.98;99011.91;5073203;28;20028;-93
2022/08/02 11:13:05;;;;;;;0.60;0.60;;;;;;;32.44;24.13;99015.78;5066275;28;20062;-92
2022/08/02 11:15:59;;;;;;;0.77;0.75;;;;;;;32.98;24.31;99030.13;5069362;28;20024;-93
2022/08/02 11:18:56;;;;;;;0.68;0.65;;;;;;;32.81;24.22;99024.03;5057851;28;20078;-94
2022/08/02 11:21:29;;;;;;;3.97;1.10;;;;;;;33.13;23.82;99023.53;5072065;28;20070;-93
2022/08/02 11:24:28;;;;;;;2.90;0.82;;;;;;;33.24;23.43;99002.63;5070550;28;20035;-95
2022/08/02 11:27:00;;;;;;;3.60;0.70;;;;;;;33.26;23.10;98985.53;5067531;28;20095;-93
2022/08/02 11:29:58;;;;;;;1.10;1.00;;;;;;;33.18;23.36;99000.44;5070589;28;20021;-94
2022/08/02 11:32:26;;;;;;;1.10;0.90;;;;;;;33.28;23.68;99003.19;4997471;28;20055;-93
2022/08/02 11:34:56;;;;;;;2.00;0.90;;;;;;;33.26;24.00;98971.84;5069636;28;20459;-92
2022/08/02 11:37:34;;;;;;;1.67;1.20;;;;;;;33.51;23.86;99001.44;5073740;28;20032;-93
2022/08/02 11:43:39;;;;;;;1.92;1.05;;;;;;;33.21;23.94;98971.78;5065400;28;20020;-94
2022/08/02 11:46:12;;;;;;;2.30;0.75;;;;;;;33.44;23.13;98991.06;5076197;28;20020;-92
2022/08/02 11:49:02;;;;;;;2.70;0.93;;;;;;;33.49;22.70;98983.78;5077799;28;20028;-93
2022/08/02 11:52:11;;;;;;;1.10;0.93;;;;;;;33.79;22.41;99021.31;5093712;28;20434;-93
2022/08/02 11:54:48;;;;;;;1.65;0.98;;;;;;;33.50;22.58;98981.66;4985482;28;20084;-94